sensor_id;sensor_type;location;lat;lon;timestamp;pressure;altitude;pressure_sealevel;temperature;humidity
21357;BME280;10836;53.068;18.234;2022-08-21T00:00:20;100628.13;;;21.27;100.00
21357;BME280;10836;53.068;18.234;2022-08-21T00:03:07;100617.47;;;21.29;100.00
21357;BME280;10836;53.068;18.234;2022-08-21T00:05:38;100623.03;;;21.16;100.00
21357;BME280;10836;53.068;18.234;2022-08-21T00:08:06;100624.63;;;21.05;100.00
21357;BME280;10836;53.068;18.234;2022-08-21T00:10:34;100625.31;;;21.02;100.00
21357;BME280;10836;53.068;18.234;2022-08-21T00:13:04;100622.09;;;21.00;100.00
21357;BME280;10836;53.068;18.234;2022-08-21T00:15:34;100624.28;;;20.95;100.00
21357;BME280;10836;53.068;18.234;2022-08-21T00:18:03;100613.97;;;20.95;100.00
21357;BME280;10836;53.068;18.234;2022-08-21T00:20:31;100611.19;;;20.83;100.00
21357;BME280;10836;53.068;18.234;2022-08-21T00:22:58;100618.72;;;20.95;100.00
21357;BME280;10836;53.068;18.234;2022-08-21T00:25:26;100608.44;;;20.95;100.00
21357;BME280;10836;53.068;18.234;2022-08-21T00:27:54;100597.09;;;21.00;100.00
21357;BME280;10836;53.068;18.234;2022-08-21T00:30:24;100595.94;;;21.01;100.00
21357;BME280;10836;53.068;18.234;2022-08-21T00:32:55;100604.72;;;21.03;100.00
21357;BME280;10836;53.068;18.234;2022-08-21T00:35:28;100608.66;;;20.78;100.00
21357;BME280;10836;53.068;18.234;2022-08-21T00:37:56;100605.88;;;20.78;100.00
21357;BME280;10836;53.068;18.234;2022-08-21T00:40:33;100593.84;;;20.86;100.00
21357;BME280;10836;53.068;18.234;2022-08-21T00:43:03;100590.13;;;20.82;100.00
21357;BME280;10836;53.068;18.234;2022-08-21T00:45:31;100600.75;;;20.80;100.00
21357;BME280;10836;53.068;18.234;2022-08-21T00:47:58;100600.31;;;20.78;100.00
21357;BME280;10836;53.068;18.234;2022-08-21T00:50:29;100607.72;;;20.86;100.00
21357;BME280;10836;53.068;18.234;2022-08-21T00:52:59;100609.47;;;20.78;100.00
21357;BME280;10836;53.068;18.234;2022-08-21T00:55:29;100610.28;;;20.79;100.00
21357;BME280;10836;53.068;18.234;2022-08-21T00:57:59;100619.25;;;20.64;100.00
21357;BME280;10836;53.068;18.234;2022-08-21T01:00:32;100612.09;;;20.63;100.00
21357;BME280;10836;53.068;18.234;2022-08-21T01:03:04;100615.19;;;20.61;100.00
21357;BME280;10836;53.068;18.234;2022-08-21T01:05:35;100608.31;;;20.46;100.00
21357;BME280;10836;53.068;18.234;2022-08-21T01:08:03;100611.16;;;20.58;100.00
21357;BME280;10836;53.068;18.234;2022-08-21T01:10:31;100609.06;;;20.55;100.00
21357;BME280;10836;53.068;18.234;2022-08-21T01:12:59;100612.34;;;20.70;100.00
21357;BME280;10836;53.068;18.234;2022-08-21T01:15:32;100608.38;;;20.58;100.00
21357;BME280;10836;53.068;18.234;2022-08-21T01:18:05;100610.94;;;20.64;100.00
21357;BME280;10836;53.068;18.234;2022-08-21T01:20:35;100617.63;;;20.63;100.00
21357;BME280;10836;53.068;18.234;2022-08-21T01:23:04;100611.56;;;20.48;100.00
21357;BME280;10836;53.068;18.234;2022-08-21T01:25:32;100620.63;;;20.57;100.00
21357;BME280;10836;53.068;18.234;2022-08-21T01:28:06;100610.88;;;20.51;100.00
21357;BME280;10836;53.068;18.234;2022-08-21T01:30:37;100616.00;;;20.62;100.00
21357;BME280;10836;53.068;18.234;2022-08-21T01:33:05;100606.97;;;20.52;100.00
21357;BME280;10836;53.068;18.234;2022-08-21T01:35:33;100612.94;;;20.42;100.00
21357;BME280;10836;53.068;18.234;2022-08-21T01:38:00;100602.25;;;20.32;100.00
21357;BME280;10836;53.068;18.234;2022-08-21T01:40:27;100603.88;;;20.33;100.00
21357;BME280;10836;53.068;18.234;2022-08-21T01:42:54;100609.53;;;20.37;100.00
21357;BME280;10836;53.068;18.234;2022-08-21T01:45:22;100601.31;;;20.28;100.00
21357;BME280;10836;53.068;18.234;2022-08-21T01:47:49;100601.22;;;20.04;100.00
21357;BME280;10836;53.068;18.234;2022-08-21T01:50:18;100602.25;;;20.32;100.00
21357;BME280;10836;53.068;18.234;2022-08-21T01:52:46;100595.16;;;20.43;100.00
21357;BME280;10836;53.068;18.234;2022-08-21T01:55:16;100597.91;;;20.43;100.00
21357;BME280;10836;53.068;18.234;2022-08-21T01:57:45;100594.19;;;20.39;100.00
21357;BME280;10836;53.068;18.234;2022-08-21T02:00:14;100583.09;;;20.39;100.00
21357;BME280;10836;53.068;18.234;2022-08-21T02:02:42;100577.06;;;20.37;100.00
21357;BME280;10836;53.068;18.234;2022-08-21T02:05:11;100578.97;;;20.45;100.00
21357;BME280;10836;53.068;18.234;2022-08-21T02:07:41;100571.03;;;20.23;100.00
21357;BME280;10836;53.068;18.234;2022-08-21T02:10:11;100576.41;;;20.40;100.00
21357;BME280;10836;53.068;18.234;2022-08-21T02:12:38;100567.06;;;20.45;100.00
21357;BME280;10836;53.068;18.234;2022-08-21T02:15:06;100563.19;;;20.25;100.00
21357;BME280;10836;53.068;18.234;2022-08-21T02:17:43;100568.19;;;20.32;100.00
21357;BME280;10836;53.068;18.234;2022-08-21T02:20:19;100563.44;;;20.32;100.00
21357;BME280;10836;53.068;18.234;2022-08-21T02:22:46;100560.88;;;20.27;100.00
21357;BME280;10836;53.068;18.234;2022-08-21T02:25:13;100555.72;;;20.38;100.00
21357;BME280;10836;53.068;18.234;2022-08-21T02:27:43;100547.50;;;20.29;100.00
21357;BME280;10836;53.068;18.234;2022-08-21T02:30:17;100549.31;;;20.37;100.00
21357;BME280;10836;53.068;18.234;2022-08-21T02:32:44;100542.88;;;20.33;100.00
21357;BME280;10836;53.068;18.234;2022-08-21T02:35:12;100549.09;;;20.30;100.00
21357;BME280;10836;53.068;18.234;2022-08-21T02:37:45;100540.56;;;20.35;100.00
21357;BME280;10836;53.068;18.234;2022-08-21T02:40:14;100548.44;;;20.33;100.00
21357;BME280;10836;53.068;18.234;2022-08-21T02:42:43;100543.44;;;20.26;100.00
21357;BME280;10836;53.068;18.234;2022-08-21T02:45:12;100543.34;;;20.35;100.00
21357;BME280;10836;53.068;18.234;2022-08-21T02:47:50;100541.94;;;20.29;100.00
21357;BME280;10836;53.068;18.234;2022-08-21T02:50:23;100542.63;;;20.26;100.00
21357;BME280;10836;53.068;18.234;2022-08-21T02:52:54;100548.16;;;20.26;100.00
21357;BME280;10836;53.068;18.234;2022-08-21T02:55:27;100543.25;;;20.11;100.00
21357;BME280;10836;53.068;18.234;2022-08-21T02:57:56;100544.47;;;20.22;100.00
21357;BME280;10836;53.068;18.234;2022-08-21T03:00:27;100543.03;;;20.16;100.00
21357;BME280;10836;53.068;18.234;2022-08-21T03:02:55;100539.13;;;20.17;100.00
21357;BME280;10836;53.068;18.234;2022-08-21T03:05:24;100536.59;;;20.24;100.00
21357;BME280;10836;53.068;18.234;2022-08-21T03:07:51;100529.22;;;20.28;100.00
21357;BME280;10836;53.068;18.234;2022-08-21T03:10:20;100528.50;;;20.19;100.00
21357;BME280;10836;53.068;18.234;2022-08-21T03:12:48;100530.13;;;20.20;100.00
21357;BME280;10836;53.068;18.234;2022-08-21T03:15:17;100530.28;;;20.03;100.00
21357;BME280;10836;53.068;18.234;2022-08-21T03:17:46;100535.88;;;20.15;100.00
21357;BME280;10836;53.068;18.234;2022-08-21T03:20:17;100517.00;;;20.41;100.00
21357;BME280;10836;53.068;18.234;2022-08-21T03:22:44;100530.22;;;20.11;100.00
21357;BME280;10836;53.068;18.234;2022-08-21T03:25:20;100530.75;;;20.05;100.00
21357;BME280;10836;53.068;18.234;2022-08-21T03:28:00;100530.97;;;20.00;100.00
21357;BME280;10836;53.068;18.234;2022-08-21T03:30:29;100530.09;;;20.08;100.00
21357;BME280;10836;53.068;18.234;2022-08-21T03:32:58;100542.25;;;19.94;100.00
21357;BME280;10836;53.068;18.234;2022-08-21T03:35:27;100539.72;;;19.89;100.00
21357;BME280;10836;53.068;18.234;2022-08-21T03:37:54;100548.03;;;19.89;100.00
21357;BME280;10836;53.068;18.234;2022-08-21T03:40:22;100543.22;;;19.99;100.00
21357;BME280;10836;53.068;18.234;2022-08-21T03:42:50;100551.31;;;20.04;100.00
21357;BME280;10836;53.068;18.234;2022-08-21T03:45:19;100554.72;;;19.88;100.00
21357;BME280;10836;53.068;18.234;2022-08-21T03:50:19;100558.53;;;19.84;100.00
21357;BME280;10836;53.068;18.234;2022-08-21T03:52:47;100562.72;;;19.90;100.00
21357;BME280;10836;53.068;18.234;2022-08-21T03:55:14;100563.56;;;20.03;100.00
21357;BME280;10836;53.068;18.234;2022-08-21T03:57:42;100563.69;;;20.06;100.00
21357;BME280;10836;53.068;18.234;2022-08-21T04:00:12;100571.50;;;20.37;100.00
21357;BME280;10836;53.068;18.234;2022-08-21T04:02:40;100562.88;;;20.39;100.00
21357;BME280;10836;53.068;18.234;2022-08-21T04:05:09;100566.84;;;20.17;100.00
21357;BME280;10836;53.068;18.234;2022-08-21T04:07:36;100562.38;;;20.24;100.00
21357;BME280;10836;53.068;18.234;2022-08-21T04:10:06;100566.44;;;20.27;100.00
21357;BME280;10836;53.068;18.234;2022-08-21T04:12:33;100571.50;;;20.37;100.00
21357;BME280;10836;53.068;18.234;2022-08-21T04:15:01;100576.41;;;20.40;100.00
21357;BME280;10836;53.068;18.234;2022-08-21T04:17:29;100575.72;;;20.43;100.00
21357;BME280;10836;53.068;18.234;2022-08-21T04:19:56;100577.81;;;20.46;100.00
21357;BME280;10836;53.068;18.234;2022-08-21T04:22:23;100588.94;;;20.58;100.00
21357;BME280;10836;53.068;18.234;2022-08-21T04:24:50;100589.81;;;20.38;100.00
21357;BME280;10836;53.068;18.234;2022-08-21T04:27:17;100589.97;;;20.54;100.00
21357;BME280;10836;53.068;18.234;2022-08-21T04:29:44;100585.28;;;20.67;100.00
21357;BME280;10836;53.068;18.234;2022-08-21T04:32:11;100594.31;;;20.76;100.00
21357;BME280;10836;53.068;18.234;2022-08-21T04:34:39;100598.72;;;20.77;100.00
21357;BME280;10836;53.068;18.234;2022-08-21T04:37:06;100607.94;;;20.81;100.00
21357;BME280;10836;53.068;18.234;2022-08-21T04:39:33;100597.88;;;20.88;100.00
21357;BME280;10836;53.068;18.234;2022-08-21T04:42:00;100608.44;;;20.95;100.00
21357;BME280;10836;53.068;18.234;2022-08-21T04:44:28;100608.41;;;20.71;100.00
21357;BME280;10836;53.068;18.234;2022-08-21T04:46:55;100619.63;;;20.74;100.00
21357;BME280;10836;53.068;18.234;2022-08-21T04:49:22;100624.63;;;20.93;100.00
21357;BME280;10836;53.068;18.234;2022-08-21T04:51:49;100620.19;;;20.80;100.00
21357;BME280;10836;53.068;18.234;2022-08-21T04:54:19;100617.69;;;20.99;100.00
21357;BME280;10836;53.068;18.234;2022-08-21T04:56:50;100623.47;;;21.06;100.00
21357;BME280;10836;53.068;18.234;2022-08-21T04:59:21;100617.00;;;21.14;100.00
21357;BME280;10836;53.068;18.234;2022-08-21T05:01:49;100621.63;;;21.10;100.00
21357;BME280;10836;53.068;18.234;2022-08-21T05:04:21;100618.16;;;21.01;100.00
21357;BME280;10836;53.068;18.234;2022-08-21T05:06:52;100625.31;;;21.02;100.00
21357;BME280;10836;53.068;18.234;2022-08-21T05:09:21;100623.50;;;21.18;100.00
21357;BME280;10836;53.068;18.234;2022-08-21T05:11:49;100630.44;;;21.12;100.00
21357;BME280;10836;53.068;18.234;2022-08-21T05:14:17;100630.19;;;21.05;100.00
21357;BME280;10836;53.068;18.234;2022-08-21T05:16:45;100639.22;;;21.14;100.00
21357;BME280;10836;53.068;18.234;2022-08-21T05:19:12;100629.50;;;21.08;100.00
21357;BME280;10836;53.068;18.234;2022-08-21T05:21:42;100644.28;;;21.00;100.00
21357;BME280;10836;53.068;18.234;2022-08-21T05:24:10;100641.50;;;21.00;100.00
21357;BME280;10836;53.068;18.234;2022-08-21T05:26:38;100640.03;;;21.15;100.00
21357;BME280;10836;53.068;18.234;2022-08-21T05:29:15;100637.03;;;21.20;100.00
21357;BME280;10836;53.068;18.234;2022-08-21T05:31:45;100638.09;;;21.40;100.00
21357;BME280;10836;53.068;18.234;2022-08-21T05:34:17;100635.53;;;21.47;100.00
21357;BME280;10836;53.068;18.234;2022-08-21T05:36:45;100633.00;;;21.42;100.00
21357;BME280;10836;53.068;18.234;2022-08-21T05:39:13;100634.63;;;21.43;100.00
21357;BME280;10836;53.068;18.234;2022-08-21T05:41:41;100642.03;;;21.51;100.00
21357;BME280;10836;53.068;18.234;2022-08-21T05:44:08;100643.38;;;21.08;100.00
21357;BME280;10836;53.068;18.234;2022-08-21T05:46:36;100636.56;;;21.30;100.00
21357;BME280;10836;53.068;18.234;2022-08-21T05:49:03;100635.06;;;21.33;100.00
21357;BME280;10836;53.068;18.234;2022-08-21T05:51:30;100640.06;;;21.39;100.00
21357;BME280;10836;53.068;18.234;2022-08-21T05:53:58;100637.63;;;21.50;100.00
21357;BME280;10836;53.068;18.234;2022-08-21T05:56:25;100634.03;;;21.49;100.00
21357;BME280;10836;53.068;18.234;2022-08-21T05:58:52;100640.28;;;21.34;100.00
21357;BME280;10836;53.068;18.234;2022-08-21T06:01:20;100633.34;;;21.28;100.00
21357;BME280;10836;53.068;18.234;2022-08-21T06:03:47;100635.06;;;21.20;100.00
21357;BME280;10836;53.068;18.234;2022-08-21T06:06:14;100628.22;;;21.18;100.00
21357;BME280;10836;53.068;18.234;2022-08-21T06:08:42;100633.22;;;21.24;100.00
21357;BME280;10836;53.068;18.234;2022-08-21T06:11:10;100631.13;;;21.09;100.00
21357;BME280;10836;53.068;18.234;2022-08-21T06:13:37;100628.78;;;20.99;100.00
21357;BME280;10836;53.068;18.234;2022-08-21T06:18:34;100627.88;;;21.07;100.00
21357;BME280;10836;53.068;18.234;2022-08-21T06:21:02;100618.16;;;21.13;100.00
21357;BME280;10836;53.068;18.234;2022-08-21T06:23:29;100618.50;;;21.12;100.00
21357;BME280;10836;53.068;18.234;2022-08-21T06:26:01;100608.44;;;21.19;100.00
21357;BME280;10836;53.068;18.234;2022-08-21T06:28:28;100597.84;;;21.21;100.00
21357;BME280;10836;53.068;18.234;2022-08-21T06:30:55;100597.09;;;21.00;100.00
21357;BME280;10836;53.068;18.234;2022-08-21T06:33:22;100590.16;;;21.18;100.00
21357;BME280;10836;53.068;18.234;2022-08-21T06:35:55;100590.75;;;21.12;100.00
21357;BME280;10836;53.068;18.234;2022-08-21T06:38:22;100590.38;;;21.01;100.00
21357;BME280;10836;53.068;18.234;2022-08-21T06:40:49;100585.56;;;21.22;100.00
21357;BME280;10836;53.068;18.234;2022-08-21T06:43:17;100590.63;;;21.08;100.00
21357;BME280;10836;53.068;18.234;2022-08-21T06:45:45;100601.28;;;21.06;100.00
21357;BME280;10836;53.068;18.234;2022-08-21T06:48:13;100589.50;;;21.21;100.00
21357;BME280;10836;53.068;18.234;2022-08-21T06:50:46;100585.44;;;21.19;100.00
21357;BME280;10836;53.068;18.234;2022-08-21T06:53:17;100591.13;;;21.22;100.00
21357;BME280;10836;53.068;18.234;2022-08-21T06:55:45;100590.97;;;21.31;100.00
21357;BME280;10836;53.068;18.234;2022-08-21T06:58:12;100589.00;;;21.32;100.00
21357;BME280;10836;53.068;18.234;2022-08-21T07:00:42;100600.59;;;21.46;100.00
21357;BME280;10836;53.068;18.234;2022-08-21T07:03:24;100603.47;;;21.13;100.00
21357;BME280;10836;53.068;18.234;2022-08-21T07:05:53;100604.06;;;21.18;100.00
21357;BME280;10836;53.068;18.234;2022-08-21T07:08:21;100608.00;;;21.30;100.00
21357;BME280;10836;53.068;18.234;2022-08-21T07:10:48;100622.84;;;21.21;100.00
21357;BME280;10836;53.068;18.234;2022-08-21T07:13:16;100616.88;;;21.11;100.00
21357;BME280;10836;53.068;18.234;2022-08-21T07:15:43;100628.69;;;21.08;100.00
21357;BME280;10836;53.068;18.234;2022-08-21T07:18:11;100631.16;;;21.21;100.00
21357;BME280;10836;53.068;18.234;2022-08-21T07:20:40;100622.09;;;21.00;100.00
21357;BME280;10836;53.068;18.234;2022-08-21T07:23:29;100632.97;;;21.05;100.00
21357;BME280;10836;53.068;18.234;2022-08-21T07:25:57;100632.69;;;20.86;100.00
21357;BME280;10836;53.068;18.234;2022-08-21T07:28:26;100637.44;;;20.85;100.00
21357;BME280;10836;53.068;18.234;2022-08-21T07:30:57;100633.63;;;20.90;100.00
21357;BME280;10836;53.068;18.234;2022-08-21T07:33:26;100632.56;;;20.82;100.00
21357;BME280;10836;53.068;18.234;2022-08-21T07:35:53;100627.38;;;20.93;100.00
21357;BME280;10836;53.068;18.234;2022-08-21T07:38:22;100627.59;;;20.88;100.00
21357;BME280;10836;53.068;18.234;2022-08-21T07:40:51;100622.75;;;20.85;100.00
21357;BME280;10836;53.068;18.234;2022-08-21T07:43:19;100627.34;;;20.69;100.00
21357;BME280;10836;53.068;18.234;2022-08-21T07:45:48;100624.59;;;20.81;100.00
21357;BME280;10836;53.068;18.234;2022-08-21T07:48:18;100626.41;;;20.65;100.00
21357;BME280;10836;53.068;18.234;2022-08-21T07:50:45;100626.41;;;20.65;100.00
21357;BME280;10836;53.068;18.234;2022-08-21T07:53:13;100619.94;;;20.61;100.00
21357;BME280;10836;53.068;18.234;2022-08-21T07:55:41;100618.78;;;20.62;100.00
21357;BME280;10836;53.068;18.234;2022-08-21T07:58:08;100617.66;;;20.75;100.00
21357;BME280;10836;53.068;18.234;2022-08-21T08:00:35;100616.72;;;20.83;100.00
21357;BME280;10836;53.068;18.234;2022-08-21T08:03:02;100622.53;;;20.90;100.00
21357;BME280;10836;53.068;18.234;2022-08-21T08:05:30;100632.25;;;20.96;100.00
21357;BME280;10836;53.068;18.234;2022-08-21T08:07:58;100628.06;;;20.90;100.00
21357;BME280;10836;53.068;18.234;2022-08-21T08:10:26;100621.00;;;20.68;100.00
21357;BME280;10836;53.068;18.234;2022-08-21T08:12:54;100619.94;;;20.61;100.00
21357;BME280;10836;53.068;18.234;2022-08-21T08:15:25;100621.56;;;20.62;100.00
21357;BME280;10836;53.068;18.234;2022-08-21T08:17:54;100624.81;;;20.64;100.00
21357;BME280;10836;53.068;18.234;2022-08-21T08:20:22;100628.50;;;20.80;100.00
21357;BME280;10836;53.068;18.234;2022-08-21T08:22:49;100631.28;;;20.80;100.00
21357;BME280;10836;53.068;18.234;2022-08-21T08:25:18;100635.94;;;20.88;100.00
21357;BME280;10836;53.068;18.234;2022-08-21T08:27:46;100637.56;;;20.89;100.00
21357;BME280;10836;53.068;18.234;2022-08-21T08:30:15;100634.28;;;20.63;100.00
21357;BME280;10836;53.068;18.234;2022-08-21T08:32:43;100637.91;;;20.75;100.00
21357;BME280;10836;53.068;18.234;2022-08-21T08:35:11;100633.88;;;20.97;100.00
21357;BME280;10836;53.068;18.234;2022-08-21T08:37:39;100637.56;;;20.77;100.00
21357;BME280;10836;53.068;18.234;2022-08-21T08:40:13;100641.94;;;20.78;100.00
21357;BME280;10836;53.068;18.234;2022-08-21T08:42:41;100645.06;;;20.76;100.00
21357;BME280;10836;53.068;18.234;2022-08-21T08:45:14;100638.88;;;20.58;100.00
21357;BME280;10836;53.068;18.234;2022-08-21T08:47:49;100641.28;;;20.93;100.00
21357;BME280;10836;53.068;18.234;2022-08-21T08:50:21;100640.84;;;21.15;100.00
21357;BME280;10836;53.068;18.234;2022-08-21T08:53:06;100647.56;;;21.27;100.00
21357;BME280;10836;53.068;18.234;2022-08-21T08:55:36;100644.09;;;21.17;100.00
21357;BME280;10836;53.068;18.234;2022-08-21T08:58:05;100644.69;;;21.35;100.00
21357;BME280;10836;53.068;18.234;2022-08-21T09:00:33;100644.44;;;21.16;100.00
21357;BME280;10836;53.068;18.234;2022-08-21T09:03:02;100645.38;;;21.32;100.00
21357;BME280;10836;53.068;18.234;2022-08-21T09:05:33;100652.44;;;21.42;100.00
21357;BME280;10836;53.068;18.234;2022-08-21T09:11:00;100652.22;;;21.47;100.00
21357;BME280;10836;53.068;18.234;2022-08-21T09:24:07;100651.75;;;21.57;100.00
21357;BME280;10836;53.068;18.234;2022-08-21T09:29:53;100654.72;;;21.76;100.00
21357;BME280;10836;53.068;18.234;2022-08-21T09:32:25;100654.69;;;21.88;100.00
21357;BME280;10836;53.068;18.234;2022-08-21T09:35:13;100653.66;;;21.93;100.00
21357;BME280;10836;53.068;18.234;2022-08-21T09:38:03;100649.97;;;21.77;100.00
21357;BME280;10836;53.068;18.234;2022-08-21T09:45:39;100650.41;;;22.31;100.00
21357;BME280;10836;53.068;18.234;2022-08-21T09:48:24;100654.00;;;22.04;100.00
21357;BME280;10836;53.068;18.234;2022-08-21T09:50:53;100663.50;;;21.78;100.00
21357;BME280;10836;53.068;18.234;2022-08-21T09:53:26;100657.25;;;21.81;100.00
21357;BME280;10836;53.068;18.234;2022-08-21T09:56:03;100654.50;;;21.69;100.00
21357;BME280;10836;53.068;18.234;2022-08-21T09:58:51;100658.69;;;21.27;100.00
21357;BME280;10836;53.068;18.234;2022-08-21T10:01:21;100658.22;;;21.37;100.00
21357;BME280;10836;53.068;18.234;2022-08-21T10:04:05;100666.09;;;21.35;100.00
21357;BME280;10836;53.068;18.234;2022-08-21T10:06:34;100656.25;;;21.49;100.00
21357;BME280;10836;53.068;18.234;2022-08-21T10:09:13;100659.59;;;21.67;100.00
21357;BME280;10836;53.068;18.234;2022-08-21T10:11:55;100660.50;;;21.71;100.00
21357;BME280;10836;53.068;18.234;2022-08-21T10:18:01;100661.59;;;21.54;100.00
21357;BME280;10836;53.068;18.234;2022-08-21T10:20:40;100669.81;;;21.51;100.00
21357;BME280;10836;53.068;18.234;2022-08-21T10:23:54;100672.22;;;21.52;100.00
21357;BME280;10836;53.068;18.234;2022-08-21T10:42:33;100685.28;;;21.15;100.00
21357;BME280;10836;53.068;18.234;2022-08-21T10:48:02;100695.66;;;21.06;100.00
21357;BME280;10836;53.068;18.234;2022-08-21T10:53:32;100703.09;;;21.14;100.00
21357;BME280;10836;53.068;18.234;2022-08-21T11:01:18;100696.75;;;20.81;100.00
21357;BME280;10836;53.068;18.234;2022-08-21T11:03:53;100699.91;;;20.58;100.00
21357;BME280;10836;53.068;18.234;2022-08-21T11:06:24;100698.28;;;20.57;100.00
21357;BME280;10836;53.068;18.234;2022-08-21T11:08:55;100710.34;;;20.62;100.00
21357;BME280;10836;53.068;18.234;2022-08-21T11:11:34;100706.16;;;20.55;100.00
21357;BME280;10836;53.068;18.234;2022-08-21T11:16:59;100707.91;;;20.39;100.00
21357;BME280;10836;53.068;18.234;2022-08-21T11:22:21;100711.16;;;20.62;100.00
21357;BME280;10836;53.068;18.234;2022-08-21T11:24:57;100707.78;;;20.56;100.00
21357;BME280;10836;53.068;18.234;2022-08-21T11:27:43;100708.44;;;20.53;100.00
21357;BME280;10836;53.068;18.234;2022-08-21T11:30:13;100705.25;;;20.64;100.00
21357;BME280;10836;53.068;18.234;2022-08-21T11:35:38;100709.53;;;20.40;100.00
21357;BME280;10836;53.068;18.234;2022-08-21T11:43:41;100696.94;;;20.22;100.00
21357;BME280;10836;53.068;18.234;2022-08-21T11:46:31;100690.19;;;20.11;100.00
21357;BME280;10836;53.068;18.234;2022-08-21T11:52:12;100696.19;;;20.13;100.00
21357;BME280;10836;53.068;18.234;2022-08-21T11:54:57;100689.03;;;20.12;100.00
21357;BME280;10836;53.068;18.234;2022-08-21T11:57:38;100689.66;;;20.17;100.00
21357;BME280;10836;53.068;18.234;2022-08-21T12:00:23;100687.47;;;20.23;100.00
21357;BME280;10836;53.068;18.234;2022-08-21T12:02:55;100693.53;;;20.37;100.00
21357;BME280;10836;53.068;18.234;2022-08-21T12:05:33;100690.06;;;20.28;100.00
21357;BME280;10836;53.068;18.234;2022-08-21T12:08:15;100693.72;;;20.20;100.00
21357;BME280;10836;53.068;18.234;2022-08-21T12:13:31;100689.63;;;19.97;100.00
21357;BME280;10836;53.068;18.234;2022-08-21T12:16:07;100686.28;;;19.91;100.00
21357;BME280;10836;53.068;18.234;2022-08-21T12:18:35;100679.00;;;19.99;100.00
21357;BME280;10836;53.068;18.234;2022-08-21T12:26:34;100678.91;;;20.16;100.00
21357;BME280;10836;53.068;18.234;2022-08-21T12:29:25;100680.72;;;20.12;100.00
21357;BME280;10836;53.068;18.234;2022-08-21T12:32:26;100692.97;;;20.11;100.00
21357;BME280;10836;53.068;18.234;2022-08-21T12:35:13;100696.00;;;20.18;100.00
21357;BME280;10836;53.068;18.234;2022-08-21T12:38:26;100698.84;;;20.09;100.00
21357;BME280;10836;53.068;18.234;2022-08-21T12:40:57;100705.44;;;19.75;100.00
21357;BME280;10836;53.068;18.234;2022-08-21T12:43:35;100711.34;;;19.65;100.00
21357;BME280;10836;53.068;18.234;2022-08-21T12:46:05;100713.72;;;19.46;100.00
21357;BME280;10836;53.068;18.234;2022-08-21T12:48:42;100717.75;;;19.57;100.00
21357;BME280;10836;53.068;18.234;2022-08-21T12:51:16;100711.44;;;19.48;100.00
21357;BME280;10836;53.068;18.234;2022-08-21T12:53:51;100722.78;;;19.55;100.00
21357;BME280;10836;53.068;18.234;2022-08-21T12:56:21;100719.41;;;19.49;100.00
21357;BME280;10836;53.068;18.234;2022-08-21T12:58:55;100724.78;;;19.46;100.00
21357;BME280;10836;53.068;18.234;2022-08-21T13:01:29;100720.91;;;19.38;100.00
21357;BME280;10836;53.068;18.234;2022-08-21T13:04:01;100728.44;;;19.20;100.00
21357;BME280;10836;53.068;18.234;2022-08-21T13:06:37;100726.16;;;19.22;100.00
21357;BME280;10836;53.068;18.234;2022-08-21T13:09:07;100730.44;;;19.11;100.00
21357;BME280;10836;53.068;18.234;2022-08-21T13:11:37;100734.66;;;19.09;100.00
21357;BME280;10836;53.068;18.234;2022-08-21T13:14:17;100732.78;;;18.92;100.00
21357;BME280;10836;53.068;18.234;2022-08-21T13:16:53;100739.63;;;18.86;100.00
21357;BME280;10836;53.068;18.234;2022-08-21T13:19:22;100742.06;;;18.79;100.00
21357;BME280;10836;53.068;18.234;2022-08-21T13:21:50;100737.69;;;18.78;100.00
21357;BME280;10836;53.068;18.234;2022-08-21T13:24:22;100732.78;;;18.75;100.00
21357;BME280;10836;53.068;18.234;2022-08-21T13:27:27;100732.97;;;18.70;100.00
21357;BME280;10836;53.068;18.234;2022-08-21T13:30:11;100736.38;;;18.84;100.00
21357;BME280;10836;53.068;18.234;2022-08-21T13:32:42;100738.97;;;18.89;100.00
21357;BME280;10836;53.068;18.234;2022-08-21T13:35:22;100746.44;;;19.06;100.00
21357;BME280;10836;53.068;18.234;2022-08-21T13:37:53;100743.69;;;18.97;100.00
21357;BME280;10836;53.068;18.234;2022-08-21T13:40:38;100751.66;;;18.81;100.00
21357;BME280;10836;53.068;18.234;2022-08-21T13:43:14;100761.91;;;18.89;100.00
21357;BME280;10836;53.068;18.234;2022-08-21T13:45:51;100759.16;;;18.81;100.00
21357;BME280;10836;53.068;18.234;2022-08-21T13:48:20;100763.06;;;18.80;100.00
21357;BME280;10836;53.068;18.234;2022-08-21T13:50:48;100765.19;;;18.74;100.00
21357;BME280;10836;53.068;18.234;2022-08-21T13:53:28;100771.03;;;18.64;100.00
21357;BME280;10836;53.068;18.234;2022-08-21T13:55:57;100768.75;;;18.75;100.00
21357;BME280;10836;53.068;18.234;2022-08-21T13:58:47;100774.78;;;18.77;100.00
21357;BME280;10836;53.068;18.234;2022-08-21T14:01:28;100772.50;;;18.79;100.00
21357;BME280;10836;53.068;18.234;2022-08-21T14:04:02;100769.25;;;18.77;100.00
21357;BME280;10836;53.068;18.234;2022-08-21T14:06:34;100776.56;;;18.81;100.00
21357;BME280;10836;53.068;18.234;2022-08-21T14:09:39;100773.47;;;18.83;100.00
21357;BME280;10836;53.068;18.234;2022-08-21T14:12:29;100780.97;;;18.74;100.00
21357;BME280;10836;53.068;18.234;2022-08-21T14:15:02;100787.78;;;18.68;100.00